Time;durP1;ratioP1;P1;durP2;ratioP2;P2;SDS_P1;SDS_P2;PMS_P1;PMS_P2;Temp;Humidity;BMP_temperature;BMP_pressure;BME280_temperature;BME280_humidity;BME280_pressure;Samples;Min_cycle;Max_cycle;Signal;HPM_P1;HPM_P2
2022/12/24 00:02:10;;;;;;;7.70;4.63;;;9.90;99.90;;;;;;5093634;28;20253;-77
2022/12/24 00:04:36;;;;;;;6.95;4.55;;;9.80;99.90;;;;;;5092144;28;20032;-78
2022/12/24 00:07:02;;;;;;;7.38;5.10;;;10.00;99.90;;;;;;5091983;28;20057;-78
2022/12/24 00:09:28;;;;;;;7.47;4.90;;;9.80;99.90;;;;;;5091700;28;20032;-77
2022/12/24 00:11:54;;;;;;;10.57;4.60;;;9.80;99.90;;;;;;5092655;28;20051;-77
2022/12/24 00:14:20;;;;;;;8.45;4.93;;;9.80;99.90;;;;;;5092091;28;20032;-77
2022/12/24 00:16:45;;;;;;;6.50;4.57;;;9.80;99.90;;;;;;5091786;28;20063;-77
2022/12/24 00:19:11;;;;;;;7.65;4.80;;;9.80;99.90;;;;;;5092512;28;20048;-78
2022/12/24 00:21:37;;;;;;;10.48;5.85;;;10.00;99.90;;;;;;5091570;28;20036;-78
2022/12/24 00:24:04;;;;;;;7.15;4.57;;;9.80;99.90;;;;;;5092457;28;20219;-78
2022/12/24 00:26:34;;;;;;;7.55;4.47;;;9.80;99.90;;;;;;5092755;28;20058;-76
2022/12/24 00:29:00;;;;;;;8.05;4.70;;;10.00;99.90;;;;;;5091178;28;20496;-78
2022/12/24 00:31:25;;;;;;;7.72;5.05;;;9.70;99.90;;;;;;5092510;28;20067;-78
2022/12/24 00:33:51;;;;;;;9.25;4.70;;;9.80;99.90;;;;;;5092309;28;20044;-78
2022/12/24 00:36:18;;;;;;;6.95;4.40;;;9.80;99.90;;;;;;5091271;28;20032;-77
2022/12/24 00:38:45;;;;;;;8.57;4.18;;;9.80;99.90;;;;;;5092216;28;20066;-77
2022/12/24 00:41:24;;;;;;;6.72;4.53;;;10.00;99.90;;;;;;5091812;28;20103;-77
2022/12/24 00:44:02;;;;;;;9.95;4.43;;;9.80;99.90;;;;;;5092502;28;20264;-77
2022/12/24 00:46:30;;;;;;;7.03;3.80;;;9.60;99.90;;;;;;5092032;28;20036;-77
2022/12/24 00:48:55;;;;;;;;;;;9.70;99.90;;;;;;5092643;28;20050;-79
2022/12/24 00:51:22;;;;;;;10.70;3.67;;;9.70;99.90;;;;;;5092071;28;20334;-77
2022/12/24 00:53:48;;;;;;;11.15;6.47;;;9.70;99.90;;;;;;5091766;28;20028;-78
2022/12/24 00:56:14;;;;;;;6.07;3.58;;;9.60;99.90;;;;;;5092197;28;20024;-78
2022/12/24 00:58:40;;;;;;;7.18;3.92;;;9.60;99.90;;;;;;5090719;28;20088;-79
2022/12/24 01:01:06;;;;;;;5.70;3.97;;;9.70;99.90;;;;;;5090654;28;20466;-77
2022/12/24 01:03:34;;;;;;;8.27;4.72;;;9.50;99.90;;;;;;5091852;28;20181;-79
2022/12/24 01:06:03;;;;;;;7.07;4.32;;;9.50;99.90;;;;;;5091694;28;20453;-79
2022/12/24 01:08:28;;;;;;;;;;;9.40;99.90;;;;;;5092518;28;20024;-78
2022/12/24 01:10:54;;;;;;;7.32;4.53;;;9.50;99.90;;;;;;5090657;28;20345;-79
2022/12/24 01:13:20;;;;;;;10.00;4.40;;;9.40;99.90;;;;;;5091131;28;20048;-76
2022/12/24 01:15:46;;;;;;;6.95;4.70;;;9.40;99.90;;;;;;5091542;28;20465;-78
2022/12/24 01:18:11;;;;;;;6.68;4.93;;;9.40;99.90;;;;;;5091309;28;20466;-80
2022/12/24 01:20:37;;;;;;;8.05;4.80;;;9.40;99.90;;;;;;5091619;28;20020;-77
2022/12/24 01:23:03;;;;;;;10.35;5.43;;;9.40;99.90;;;;;;5090543;28;20020;-76
2022/12/24 01:25:28;;;;;;;6.63;4.47;;;9.40;99.90;;;;;;5090279;28;20475;-78
2022/12/24 01:27:54;;;;;;;7.88;4.65;;;9.40;99.90;;;;;;5091351;28;20035;-77
2022/12/24 01:30:20;;;;;;;6.55;4.50;;;9.40;99.90;;;;;;5091211;28;20101;-78
2022/12/24 01:32:45;;;;;;;6.82;4.53;;;9.40;99.90;;;;;;5089921;28;20055;-78
2022/12/24 01:35:11;;;;;;;7.00;4.13;;;9.30;99.90;;;;;;5091011;28;20078;-77
2022/12/24 01:37:38;;;;;;;8.18;4.60;;;9.40;99.90;;;;;;5091243;28;20104;-77
2022/12/24 01:45:52;;;;;;;6.32;4.20;;;9.40;99.90;;;;;;5091051;28;20043;-77
2022/12/24 01:48:43;;;;;;;6.45;4.57;;;9.40;99.90;;;;;;5090163;28;20088;-78
2022/12/24 01:51:16;;;;;;;6.90;4.68;;;9.40;99.90;;;;;;5090329;28;20111;-79
2022/12/24 01:53:46;;;;;;;6.95;4.63;;;9.40;99.90;;;;;;5089928;28;20479;-78
2022/12/24 01:56:13;;;;;;;8.68;4.97;;;9.40;99.90;;;;;;5091536;28;20032;-78
2022/12/24 01:58:43;;;;;;;7.68;5.22;;;9.60;99.90;;;;;;5090956;28;20025;-78
2022/12/24 02:01:09;;;;;;;6.60;4.82;;;9.40;99.90;;;;;;5090018;28;20024;-78
2022/12/24 02:03:35;;;;;;;8.02;5.50;;;9.40;99.90;;;;;;5091018;28;20028;-77
2022/12/24 02:06:01;;;;;;;7.68;5.22;;;9.40;99.90;;;;;;5091046;28;20461;-78
2022/12/24 02:08:38;;;;;;;7.63;5.18;;;9.40;99.90;;;;;;5091467;28;20419;-79
2022/12/24 02:11:17;;;;;;;9.25;5.38;;;9.40;99.90;;;;;;5090985;28;20040;-77
2022/12/24 02:13:47;;;;;;;10.85;5.50;;;9.40;99.90;;;;;;5090978;28;20048;-77
2022/12/24 02:16:20;;;;;;;8.48;5.32;;;9.40;99.90;;;;;;5090908;28;20458;-77
2022/12/24 02:19:01;;;;;;;8.32;5.22;;;9.40;99.90;;;;;;5089556;28;20039;-77
2022/12/24 02:21:41;;;;;;;8.18;5.38;;;9.40;99.90;;;;;;5089945;28;20339;-77
2022/12/24 02:24:46;;;;;;;10.68;5.32;;;9.50;99.90;;;;;;5090804;28;20024;-77
2022/12/24 02:27:21;;;;;;;8.68;5.68;;;9.40;99.90;;;;;;5089650;28;20113;-78
2022/12/24 02:30:04;;;;;;;9.82;5.25;;;9.50;99.90;;;;;;5089923;28;20103;-77
2022/12/24 02:32:33;;;;;;;10.20;6.05;;;9.60;99.90;;;;;;5103142;28;20106;-78
2022/12/24 02:35:13;;;;;;;8.57;5.25;;;9.80;99.90;;;;;;5111369;28;20339;-78
2022/12/24 02:37:51;;;;;;;9.45;5.10;;;9.60;99.90;;;;;;5094581;28;20028;-78
2022/12/24 02:40:37;;;;;;;7.57;5.07;;;9.60;99.90;;;;;;5094676;28;20356;-77
2022/12/24 02:43:08;;;;;;;9.55;4.78;;;9.60;99.90;;;;;;5094395;28;20033;-78
2022/12/24 02:45:35;;;;;;;9.40;4.95;;;9.70;99.90;;;;;;5094519;28;20028;-77
2022/12/24 02:48:01;;;;;;;11.25;3.38;;;9.80;99.90;;;;;;5094320;28;20031;-77
2022/12/24 02:50:27;;;;;;;11.98;3.88;;;10.00;99.90;;;;;;5093622;28;20257;-78
2022/12/24 02:52:53;;;;;;;9.18;3.30;;;9.90;99.90;;;;;;5093124;28;20490;-77
2022/12/24 02:55:30;;;;;;;14.90;3.17;;;10.20;99.90;;;;;;5094214;28;20063;-78
2022/12/24 02:58:17;;;;;;;15.70;3.03;;;10.10;99.90;;;;;;5094475;28;20028;-78
2022/12/24 03:01:17;;;;;;;12.93;3.08;;;10.20;99.90;;;;;;5094041;28;20032;-78
2022/12/24 03:04:10;;;;;;;15.80;3.55;;;10.30;99.90;;;;;;5093341;28;20036;-76
2022/12/24 03:06:58;;;;;;;14.80;3.10;;;10.40;99.90;;;;;;5094277;28;20170;-78
2022/12/24 03:09:36;;;;;;;8.65;2.53;;;10.40;99.90;;;;;;5092874;28;20039;-76
2022/12/24 03:12:17;;;;;;;16.65;2.55;;;10.50;99.90;;;;;;5093731;28;20605;-78
2022/12/24 03:14:43;;;;;;;15.38;2.53;;;10.50;99.90;;;;;;5093858;28;20036;-78
2022/12/24 03:17:09;;;;;;;15.27;2.88;;;10.60;99.90;;;;;;5093475;28;20031;-78
2022/12/24 03:19:35;;;;;;;19.63;3.78;;;10.60;99.90;;;;;;5094104;28;20032;-74
2022/12/24 03:22:06;;;;;;;8.57;2.50;;;10.60;99.90;;;;;;5093780;28;20047;-78
2022/12/24 03:24:31;;;;;;;23.10;3.33;;;10.60;99.90;;;;;;5093682;28;20039;-78
2022/12/24 03:26:58;;;;;;;14.75;2.58;;;10.70;99.90;;;;;;5092674;28;20032;-81
2022/12/24 03:29:24;;;;;;;17.03;2.80;;;10.70;99.90;;;;;;5094077;28;20103;-78
2022/12/24 03:31:57;;;;;;;17.13;2.95;;;10.70;99.90;;;;;;5093588;28;20387;-77
2022/12/24 03:34:23;;;;;;;25.27;3.20;;;10.70;99.90;;;;;;5092564;28;20035;-77
2022/12/24 03:36:48;;;;;;;10.57;2.58;;;10.70;99.90;;;;;;5093694;28;20024;-78
2022/12/24 03:39:15;;;;;;;14.70;2.70;;;10.70;99.90;;;;;;5092311;28;20347;-78
2022/12/24 03:41:40;;;;;;;16.17;2.55;;;10.70;99.90;;;;;;5092111;28;20032;-77
2022/12/24 03:44:06;;;;;;;31.15;3.35;;;10.70;99.90;;;;;;5092117;28;20125;-79
2022/12/24 03:46:32;;;;;;;15.13;3.20;;;10.90;99.90;;;;;;5093274;28;20421;-78
2022/12/24 03:48:58;;;;;;;20.40;2.72;;;10.80;99.90;;;;;;5093328;28;20420;-78
2022/12/24 03:51:24;;;;;;;14.50;2.63;;;10.70;99.90;;;;;;5091897;28;20416;-78
2022/12/24 03:53:55;;;;;;;19.50;2.47;;;10.80;99.90;;;;;;5091973;28;20093;-78
2022/12/24 03:56:21;;;;;;;16.50;2.88;;;10.80;99.90;;;;;;5092452;28;20028;-78
2022/12/24 03:58:48;;;;;;;21.23;2.85;;;10.80;99.90;;;;;;5092033;28;20028;-76
2022/12/24 04:01:14;;;;;;;22.73;4.20;;;10.80;99.90;;;;;;5093207;28;20054;-77
2022/12/24 04:03:40;;;;;;;25.70;3.03;;;10.80;99.90;;;;;;5092784;28;20028;-78
2022/12/24 04:06:16;;;;;;;18.75;3.25;;;10.80;99.90;;;;;;5091768;28;20094;-77
2022/12/24 04:08:42;;;;;;;15.25;2.28;;;10.70;99.90;;;;;;5093082;28;20024;-78
2022/12/24 04:11:10;;;;;;;19.50;3.13;;;10.90;99.90;;;;;;5093223;28;20044;-76
2022/12/24 04:13:36;;;;;;;14.43;2.63;;;10.80;99.90;;;;;;5092430;28;20048;-79
2022/12/24 04:16:10;;;;;;;19.75;2.50;;;10.80;99.90;;;;;;5092618;28;20545;-76
2022/12/24 04:18:37;;;;;;;20.92;3.13;;;10.70;99.90;;;;;;5092611;28;20036;-77
2022/12/24 04:21:03;;;;;;;16.65;2.90;;;10.70;99.90;;;;;;5092569;28;20035;-77
2022/12/24 04:23:31;;;;;;;18.23;2.45;;;10.70;99.90;;;;;;5092048;28;20135;-76
2022/12/24 04:25:59;;;;;;;16.58;2.42;;;10.70;99.90;;;;;;5092641;28;20021;-77
2022/12/24 04:28:25;;;;;;;19.02;2.90;;;10.70;99.90;;;;;;5092022;28;20319;-78
2022/12/24 04:30:50;;;;;;;24.80;2.97;;;10.70;99.90;;;;;;5092359;28;20484;-78
2022/12/24 04:33:16;;;;;;;15.00;2.95;;;10.70;99.90;;;;;;5092347;28;20056;-78
2022/12/24 04:35:42;;;;;;;20.13;2.72;;;10.70;99.90;;;;;;5092202;28;20028;-77
2022/12/24 04:38:10;;;;;;;16.05;2.78;;;10.90;99.90;;;;;;5091988;28;20032;-78
2022/12/24 04:40:36;;;;;;;22.02;3.38;;;10.80;99.90;;;;;;5092491;28;20168;-77
2022/12/24 04:43:02;;;;;;;19.20;3.65;;;10.80;99.90;;;;;;5092189;28;20036;-78
2022/12/24 04:45:27;;;;;;;26.15;3.92;;;10.70;99.90;;;;;;5092173;28;20431;-79
2022/12/24 04:47:53;;;;;;;15.90;2.38;;;10.70;99.90;;;;;;5092182;28;20051;-77
2022/12/24 04:50:19;;;;;;;12.52;2.95;;;10.80;99.90;;;;;;5092701;28;20027;-77
2022/12/24 04:52:44;;;;;;;15.25;2.53;;;10.70;99.90;;;;;;5091088;28;20139;-77
2022/12/24 04:55:10;;;;;;;26.10;3.30;;;10.80;99.90;;;;;;5091924;28;20141;-77
2022/12/24 04:57:36;;;;;;;24.67;3.95;;;10.70;99.90;;;;;;5091047;28;20040;-78
2022/12/24 05:00:04;;;;;;;20.80;3.30;;;10.70;99.90;;;;;;5090742;28;20308;-79
2022/12/24 05:02:29;;;;;;;19.45;3.35;;;10.80;99.90;;;;;;5091136;28;20035;-77
2022/12/24 05:04:55;;;;;;;30.05;3.80;;;10.80;99.90;;;;;;5092231;28;20111;-79
2022/12/24 05:07:21;;;;;;;15.60;3.15;;;10.80;99.90;;;;;;5090738;28;20427;-78
2022/12/24 05:09:47;;;;;;;29.70;3.30;;;10.80;99.90;;;;;;5091731;28;20044;-78
2022/12/24 05:12:12;;;;;;;19.77;2.80;;;10.80;99.90;;;;;;5091427;28;20055;-77
2022/12/24 05:14:39;;;;;;;20.52;3.20;;;10.70;99.90;;;;;;5090594;28;20052;-78
2022/12/24 05:17:05;;;;;;;16.42;3.38;;;10.80;99.90;;;;;;5092001;28;20103;-78
2022/12/24 05:19:30;;;;;;;11.88;2.42;;;10.80;99.90;;;;;;5090278;28;20196;-77
2022/12/24 05:27:25;;;;;;;14.25;2.50;;;10.80;99.90;;;;;;5091310;28;20058;-77
2022/12/24 05:29:50;;;;;;;26.13;3.30;;;10.80;99.90;;;;;;5091304;28;20059;-78
2022/12/24 05:32:16;;;;;;;19.60;3.00;;;10.80;99.90;;;;;;5090627;28;20062;-78
2022/12/24 05:34:42;;;;;;;24.52;3.00;;;10.80;99.90;;;;;;5091504;28;20050;-77
2022/12/24 05:37:07;;;;;;;12.88;2.35;;;10.70;99.90;;;;;;5091229;28;20085;-77
2022/12/24 05:39:33;;;;;;;23.88;3.17;;;10.70;99.90;;;;;;5091120;28;20031;-77
2022/12/24 05:41:58;;;;;;;21.02;3.17;;;10.70;99.90;;;;;;5091322;28;20475;-78
2022/12/24 05:44:24;;;;;;;20.27;4.75;;;10.80;99.90;;;;;;5091332;28;20020;-76
2022/12/24 05:46:50;;;;;;;24.80;3.08;;;10.80;99.90;;;;;;5091067;28;20043;-78
2022/12/24 05:49:16;;;;;;;17.00;3.28;;;10.60;99.90;;;;;;5091066;28;20024;-77
2022/12/24 05:51:41;;;;;;;26.13;3.45;;;10.60;99.90;;;;;;5090011;28;20210;-77
2022/12/24 05:54:07;;;;;;;22.23;3.42;;;10.60;99.90;;;;;;5091071;28;20032;-78
2022/12/24 05:56:33;;;;;;;28.08;3.95;;;10.60;99.90;;;;;;5091217;28;20032;-78
2022/12/24 05:58:59;;;;;;;21.33;3.30;;;10.60;99.90;;;;;;5090755;28;20020;-78
2022/12/24 06:01:25;;;;;;;26.98;3.20;;;10.50;99.90;;;;;;5090846;28;20024;-77
2022/12/24 06:03:52;;;;;;;27.23;4.45;;;10.50;99.90;;;;;;5091174;28;20028;-79
2022/12/24 06:06:23;;;;;;;25.40;3.55;;;10.40;99.90;;;;;;5089859;28;20491;-78
2022/12/24 06:08:51;;;;;;;24.40;4.00;;;10.50;99.90;;;;;;5090553;28;20028;-78
2022/12/24 06:11:19;;;;;;;17.95;3.30;;;10.50;99.90;;;;;;5091187;28;20354;-78
2022/12/24 06:13:45;;;;;;;25.60;3.88;;;10.40;99.90;;;;;;5089748;28;20028;-78
2022/12/24 06:16:13;;;;;;;31.25;3.58;;;10.40;99.90;;;;;;5091046;28;20085;-78
2022/12/24 06:18:39;;;;;;;;;;;10.50;99.90;;;;;;5091363;28;20029;-78
2022/12/24 06:21:05;;;;;;;26.23;4.00;;;10.50;99.90;;;;;;5089866;28;20030;-78
2022/12/24 06:23:34;;;;;;;24.05;3.70;;;10.60;99.90;;;;;;5091258;28;20381;-78
2022/12/24 06:26:02;;;;;;;24.17;3.92;;;10.60;99.90;;;;;;5090617;28;20139;-79
2022/12/24 06:28:32;;;;;;;18.98;3.40;;;10.80;99.90;;;;;;5089616;28;20051;-79
2022/12/24 06:30:59;;;;;;;23.00;4.20;;;10.60;99.90;;;;;;5091148;28;20085;-78
2022/12/24 06:33:25;;;;;;;29.50;4.25;;;10.60;99.90;;;;;;5090083;28;20032;-78
2022/12/24 06:35:51;;;;;;;30.30;4.35;;;10.60;99.90;;;;;;5090141;28;20024;-78
2022/12/24 06:38:17;;;;;;;24.45;3.67;;;10.60;99.90;;;;;;5091271;28;20034;-78
2022/12/24 06:40:44;;;;;;;27.65;4.18;;;10.60;99.90;;;;;;5089672;28;20093;-79
2022/12/24 06:43:12;;;;;;;22.97;4.17;;;10.80;99.90;;;;;;5090705;28;20066;-79
2022/12/24 06:45:38;;;;;;;28.80;3.83;;;10.60;99.90;;;;;;5089336;28;20028;-78
2022/12/24 06:48:05;;;;;;;25.25;4.35;;;10.70;99.90;;;;;;5090562;28;20097;-77
2022/12/24 06:50:32;;;;;;;29.90;4.57;;;10.70;99.90;;;;;;5091383;28;20055;-77
2022/12/24 06:52:58;;;;;;;31.55;4.60;;;10.70;99.90;;;;;;5090435;28;20349;-78
2022/12/24 06:55:24;;;;;;;32.17;4.47;;;10.70;99.90;;;;;;5090078;28;20446;-78
2022/12/24 06:57:49;;;;;;;20.85;3.92;;;10.60;99.90;;;;;;5089184;28;20029;-78
2022/12/24 07:00:16;;;;;;;27.35;4.00;;;10.60;99.90;;;;;;5089107;28;20415;-78
2022/12/24 07:02:42;;;;;;;28.77;4.20;;;10.60;99.90;;;;;;5089787;28;20032;-78
2022/12/24 07:05:10;;;;;;;21.05;3.50;;;10.60;99.90;;;;;;5090673;28;20333;-78
2022/12/24 07:07:38;;;;;;;28.60;3.38;;;10.60;99.90;;;;;;5090532;28;20043;-78
2022/12/24 07:10:04;;;;;;;23.13;3.88;;;10.50;99.90;;;;;;5091080;28;20486;-78
2022/12/24 07:12:30;;;;;;;22.67;3.50;;;10.50;99.90;;;;;;5089099;28;20123;-77
2022/12/24 07:14:56;;;;;;;28.25;4.15;;;10.50;99.90;;;;;;5089920;28;20147;-78
2022/12/24 07:17:22;;;;;;;32.20;4.20;;;10.50;99.90;;;;;;5091468;28;20024;-79
2022/12/24 07:19:47;;;;;;;23.67;3.75;;;10.50;99.90;;;;;;5092265;28;20119;-79
2022/12/24 07:22:14;;;;;;;37.47;3.80;;;10.50;99.90;;;;;;5094780;28;20025;-78
2022/12/24 07:24:40;;;;;;;35.70;4.32;;;10.40;99.90;;;;;;5094858;28;20041;-79
2022/12/24 07:27:05;;;;;;;27.80;3.95;;;10.40;99.90;;;;;;5093808;28;20047;-78
2022/12/24 07:29:31;;;;;;;30.25;3.75;;;10.40;99.90;;;;;;5093277;28;20028;-78
2022/12/24 07:31:57;;;;;;;27.40;3.72;;;10.40;99.90;;;;;;5093612;28;20031;-78
2022/12/24 07:34:22;;;;;;;28.05;4.32;;;10.40;99.90;;;;;;5092746;28;20177;-77
2022/12/24 07:36:48;;;;;;;35.17;3.80;;;10.40;99.90;;;;;;5093759;28;20036;-77
2022/12/24 07:39:14;;;;;;;26.85;4.32;;;10.50;99.90;;;;;;5093646;28;20055;-77
2022/12/24 07:41:39;;;;;;;26.90;3.80;;;10.40;99.90;;;;;;5092534;28;20043;-78
2022/12/24 07:44:06;;;;;;;38.90;4.40;;;10.40;99.90;;;;;;5093033;28;20077;-78
2022/12/24 07:46:32;;;;;;;31.80;4.55;;;10.40;99.90;;;;;;5093302;28;20036;-78
2022/12/24 07:48:57;;;;;;;27.88;2.97;;;10.40;99.90;;;;;;5093430;28;20032;-78
2022/12/24 07:51:23;;;;;;;27.83;4.68;;;10.40;99.90;;;;;;5093786;28;20025;-78
2022/12/24 07:53:48;;;;;;;29.33;3.72;;;10.50;99.90;;;;;;5093150;28;20103;-78
2022/12/24 07:56:15;;;;;;;28.38;4.22;;;10.50;99.90;;;;;;5092419;28;20099;-80
2022/12/24 07:58:41;;;;;;;35.97;4.20;;;10.40;99.90;;;;;;5093677;28;20352;-78
2022/12/24 08:01:10;;;;;;;37.33;4.80;;;10.50;99.90;;;;;;5092934;28;20024;-79
2022/12/24 08:03:36;;;;;;;20.23;5.20;;;10.40;99.90;;;;;;5092893;28;20040;-79
2022/12/24 08:06:02;;;;;;;21.48;4.03;;;10.50;99.90;;;;;;5092897;28;20084;-78
2022/12/24 08:08:27;;;;;;;22.38;3.45;;;10.40;99.90;;;;;;5093428;28;20477;-78
2022/12/24 08:10:53;;;;;;;20.13;3.25;;;10.40;99.90;;;;;;5092941;28;20071;-77
2022/12/24 08:13:19;;;;;;;38.00;4.00;;;10.60;99.90;;;;;;5092719;28;20043;-78
2022/12/24 08:15:45;;;;;;;28.02;3.92;;;10.50;99.90;;;;;;5092215;28;20039;-78
2022/12/24 08:18:11;;;;;;;20.55;3.70;;;10.70;99.90;;;;;;5093275;28;20107;-77
2022/12/24 08:20:38;;;;;;;28.65;3.58;;;10.50;99.90;;;;;;5093517;28;20027;-78
2022/12/24 08:23:05;;;;;;;22.17;3.35;;;10.50;99.90;;;;;;5092333;28;20367;-77
2022/12/24 08:25:31;;;;;;;28.85;3.67;;;10.40;99.90;;;;;;5092821;28;20127;-77
2022/12/24 08:27:56;;;;;;;22.48;2.92;;;10.40;99.90;;;;;;5091453;28;20115;-78
2022/12/24 08:30:22;;;;;;;23.83;3.15;;;10.50;99.90;;;;;;5091390;28;20029;-78
2022/12/24 08:32:48;;;;;;;23.23;3.28;;;10.50;99.90;;;;;;5092356;28;20519;-78
2022/12/24 08:35:14;;;;;;;24.50;4.60;;;10.60;99.90;;;;;;5091755;28;20048;-78
2022/12/24 08:37:39;;;;;;;20.83;3.15;;;10.60;99.90;;;;;;5092612;28;20362;-78
2022/12/24 08:40:05;;;;;;;29.50;4.00;;;10.60;99.90;;;;;;5091151;28;20073;-78
2022/12/24 08:42:31;;;;;;;26.25;3.67;;;10.50;99.90;;;;;;5092598;28;20102;-78
2022/12/24 08:44:57;;;;;;;30.63;5.50;;;10.50;99.90;;;;;;5091335;28;20433;-77
2022/12/24 08:47:22;;;;;;;26.50;3.35;;;10.60;99.90;;;;;;5091866;28;20036;-78
2022/12/24 08:49:48;;;;;;;27.75;4.10;;;10.50;99.90;;;;;;5092351;28;20381;-77
2022/12/24 08:52:14;;;;;;;35.05;3.58;;;10.60;99.90;;;;;;5092130;28;20032;-77
2022/12/24 08:54:39;;;;;;;34.20;6.47;;;10.60;99.90;;;;;;5092273;28;20407;-77
2022/12/24 08:57:05;;;;;;;26.50;3.63;;;10.50;99.90;;;;;;5092089;28;20054;-78
2022/12/24 08:59:30;;;;;;;24.35;3.42;;;10.60;99.90;;;;;;5092588;28;20111;-77
2022/12/24 09:01:56;;;;;;;23.15;4.10;;;10.60;99.90;;;;;;5092298;28;20477;-78
2022/12/24 09:04:22;;;;;;;32.47;3.78;;;10.70;99.90;;;;;;5092312;28;20032;-78
2022/12/24 09:06:47;;;;;;;24.77;3.67;;;10.50;99.90;;;;;;5092142;28;20115;-78
2022/12/24 09:09:13;;;;;;;25.55;4.47;;;10.60;99.90;;;;;;5091161;28;20407;-78
2022/12/24 09:11:38;;;;;;;20.30;3.30;;;10.50;99.90;;;;;;5090529;28;20104;-78
2022/12/24 09:14:04;;;;;;;26.95;4.15;;;10.60;99.90;;;;;;5092072;28;20028;-77
2022/12/24 09:16:30;;;;;;;26.98;6.45;;;10.60;99.90;;;;;;5091761;28;20032;-78
2022/12/24 09:18:56;;;;;;;26.27;6.03;;;10.70;99.90;;;;;;5091703;28;20054;-77
2022/12/24 09:21:22;;;;;;;34.28;6.25;;;10.70;99.90;;;;;;5090550;28;20031;-78
2022/12/24 09:23:48;;;;;;;25.52;5.32;;;10.70;99.90;;;;;;5091673;28;20032;-77
2022/12/24 09:26:19;;;;;;;24.35;4.53;;;10.70;99.90;;;;;;5091000;28;20347;-77
2022/12/24 09:28:46;;;;;;;31.20;5.40;;;10.80;99.90;;;;;;5091299;28;20028;-78
2022/12/24 09:31:12;;;;;;;33.03;7.00;;;10.80;99.90;;;;;;5091260;28;20348;-78
2022/12/24 09:33:39;;;;;;;33.75;5.60;;;10.90;99.90;;;;;;5091219;28;20121;-77
2022/12/24 09:36:06;;;;;;;33.28;5.70;;;10.90;99.90;;;;;;5091114;28;20499;-78
2022/12/24 09:38:32;;;;;;;22.83;5.65;;;10.90;99.90;;;;;;5090459;28;20035;-77
2022/12/24 09:41:00;;;;;;;30.25;6.43;;;10.90;99.90;;;;;;5091314;28;20043;-77
2022/12/24 09:43:30;;;;;;;35.00;6.90;;;10.90;99.90;;;;;;5090584;28;20515;-78
2022/12/24 09:46:28;;;;;;;31.48;6.28;;;11.00;99.90;;;;;;5090826;28;20111;-78
2022/12/24 09:49:08;;;;;;;37.03;6.18;;;11.10;99.90;;;;;;5083052;28;20336;-79
2022/12/24 09:51:44;;;;;;;39.15;9.13;;;11.20;99.90;;;;;;5091053;28;20051;-78
2022/12/24 09:54:18;;;;;;;35.83;6.88;;;11.20;99.90;;;;;;5091142;28;20032;-78
2022/12/24 09:56:46;;;;;;;43.63;9.40;;;11.50;99.90;;;;;;5090991;28;20310;-78
2022/12/24 09:59:34;;;;;;;29.77;6.18;;;11.40;99.90;;;;;;5091158;28;20052;-78
2022/12/24 10:02:00;;;;;;;42.78;8.93;;;11.50;99.90;;;;;;5089740;28;20028;-77
2022/12/24 10:04:30;;;;;;;24.08;6.20;;;11.50;99.90;;;;;;5089609;28;20028;-78
2022/12/24 10:07:21;;;;;;;33.30;6.88;;;11.50;99.90;;;;;;5090623;28;20339;-79
2022/12/24 10:10:12;;;;;;;28.88;5.97;;;11.70;99.90;;;;;;5090695;28;20032;-78
2022/12/24 10:13:19;;;;;;;41.78;8.25;;;11.70;99.90;;;;;;5090326;28;20040;-78
2022/12/24 10:16:06;;;;;;;35.45;5.88;;;11.80;99.90;;;;;;5089550;28;20515;-78
2022/12/24 10:18:54;;;;;;;35.60;6.28;;;11.90;99.90;;;;;;5089646;28;20115;-80
2022/12/24 10:21:47;;;;;;;36.13;6.10;;;11.80;99.90;;;;;;5089594;28;20024;-78
2022/12/24 10:24:26;;;;;;;26.45;5.93;;;11.80;99.90;;;;;;5089464;28;20040;-78
2022/12/24 10:26:59;;;;;;;21.17;5.93;;;11.70;99.90;;;;;;5090527;28;20020;-79
2022/12/24 10:29:35;;;;;;;23.83;5.82;;;11.70;99.90;;;;;;5091294;28;20439;-78
2022/12/24 10:32:06;;;;;;;33.03;5.93;;;11.60;99.90;;;;;;5089791;28;20038;-80
2022/12/24 10:34:38;;;;;;;29.25;5.45;;;11.70;99.90;;;;;;5089464;28;20028;-80
2022/12/24 10:37:05;;;;;;;37.22;6.30;;;11.80;99.90;;;;;;5090571;28;20320;-80
2022/12/24 10:39:31;;;;;;;26.13;7.72;;;11.80;99.90;;;;;;5090655;28;20028;-79
2022/12/24 10:41:59;;;;;;;25.77;6.57;;;11.80;99.90;;;;;;5090515;28;20021;-79
2022/12/24 10:44:31;;;;;;;42.72;7.10;;;11.80;99.90;;;;;;5090888;28;20016;-78
2022/12/24 10:46:58;;;;;;;21.92;5.05;;;11.90;99.90;;;;;;5089195;28;20025;-78
2022/12/24 10:49:59;;;;;;;25.98;5.30;;;11.90;99.90;;;;;;5089226;28;20025;-79
2022/12/24 10:52:31;;;;;;;33.60;5.68;;;11.80;99.90;;;;;;5084577;28;20040;-78
2022/12/24 10:55:06;;;;;;;29.92;4.60;;;11.90;99.90;;;;;;5091689;28;20024;-78
2022/12/24 10:57:33;;;;;;;22.30;5.10;;;12.00;99.90;;;;;;5093391;28;20089;-79
2022/12/24 10:59:59;;;;;;;27.85;5.65;;;11.90;99.90;;;;;;5093239;28;20470;-80
2022/12/24 11:02:36;;;;;;;22.48;6.30;;;12.00;99.90;;;;;;5094931;28;20036;-79
2022/12/24 11:05:06;;;;;;;24.38;5.13;;;12.00;99.90;;;;;;5093087;28;20036;-79
2022/12/24 11:07:32;;;;;;;26.75;5.50;;;11.90;99.90;;;;;;5093436;28;20064;-79
2022/12/24 11:10:00;;;;;;;19.15;5.32;;;11.90;99.90;;;;;;5094682;28;20060;-78
2022/12/24 11:12:52;;;;;;;22.58;5.40;;;12.00;99.90;;;;;;5094501;28;20265;-77
2022/12/24 11:15:23;;;;;;;23.73;4.72;;;11.80;99.90;;;;;;5092572;28;20035;-78
2022/12/24 11:18:13;;;;;;;19.00;4.18;;;11.80;99.90;;;;;;5093202;28;20056;-79
2022/12/24 11:20:39;;;;;;;20.92;4.38;;;11.80;99.90;;;;;;5094459;28;20017;-78
2022/12/24 11:23:05;;;;;;;14.82;4.07;;;11.70;99.90;;;;;;5094419;28;20020;-78
2022/12/24 11:25:33;;;;;;;17.15;4.63;;;11.60;99.90;;;;;;5093957;28;20501;-76
2022/12/24 11:28:19;;;;;;;21.80;4.90;;;11.60;99.90;;;;;;5093882;28;20042;-77
2022/12/24 11:30:57;;;;;;;23.20;4.63;;;11.60;99.90;;;;;;5093209;28;20543;-78
2022/12/24 11:33:23;;;;;;;17.70;4.30;;;11.60;99.90;;;;;;5093320;28;20051;-78
2022/12/24 11:36:11;;;;;;;22.85;4.25;;;11.50;99.90;;;;;;5093282;28;20107;-79
2022/12/24 11:38:37;;;;;;;;;;;11.60;99.90;;;;;;5093302;28;20119;-77
2022/12/24 11:41:10;;;;;;;24.55;4.63;;;11.60;99.90;;;;;;5093400;28;19999;-78
2022/12/24 11:43:45;;;;;;;21.75;4.97;;;11.70;99.90;;;;;;5093194;28;20315;-77
2022/12/24 11:46:13;;;;;;;22.13;5.40;;;11.60;99.90;;;;;;5093106;28;20121;-78
2022/12/24 11:48:39;;;;;;;26.30;5.10;;;11.60;99.90;;;;;;5093484;28;20024;-79
2022/12/24 11:51:17;;;;;;;30.33;5.57;;;11.70;99.90;;;;;;5092220;28;20346;-78
2022/12/24 11:53:48;;;;;;;18.33;4.93;;;11.80;99.90;;;;;;5093256;28;20101;-79
2022/12/24 11:56:33;;;;;;;20.15;4.40;;;11.60;99.90;;;;;;5093520;28;20411;-78
2022/12/24 11:59:13;;;;;;;18.67;4.03;;;11.70;99.90;;;;;;5093087;28;20158;-78
2022/12/24 12:01:51;;;;;;;17.58;4.63;;;11.60;99.90;;;;;;5092797;28;20024;-79
2022/12/24 12:04:29;;;;;;;18.80;4.15;;;11.70;99.90;;;;;;5092920;28;20112;-79
2022/12/24 12:07:09;;;;;;;;;;;11.60;99.90;;;;;;5093147;28;20089;-77
2022/12/24 12:09:43;;;;;;;28.20;7.38;;;11.60;99.90;;;;;;5092916;28;19908;-79
2022/12/24 12:12:34;;;;;;;23.05;4.68;;;11.60;99.90;;;;;;5092649;28;20082;-79
2022/12/24 12:15:04;;;;;;;16.45;3.65;;;11.70;99.90;;;;;;5091789;28;20180;-79
2022/12/24 12:17:51;;;;;;;19.38;3.80;;;11.60;99.90;;;;;;5093376;28;20313;-79
2022/12/24 12:20:35;;;;;;;16.13;3.30;;;11.60;99.90;;;;;;5092814;28;20130;-77
2022/12/24 12:23:19;;;;;;;15.60;4.18;;;11.50;99.90;;;;;;5092585;28;20249;-78
2022/12/24 12:25:44;;;;;;;17.60;3.38;;;11.80;99.90;;;;;;5092602;28;20048;-78
2022/12/24 12:28:22;;;;;;;13.45;3.40;;;11.50;99.90;;;;;;5092541;28;20024;-77
2022/12/24 12:31:12;;;;;;;12.20;2.70;;;11.50;99.90;;;;;;5092889;28;20040;-78
2022/12/24 12:33:50;;;;;;;13.93;2.53;;;11.50;99.90;;;;;;5092466;28;20115;-80
2022/12/24 12:36:21;;;;;;;9.27;2.30;;;11.40;99.90;;;;;;5091124;28;20028;-78
2022/12/24 12:38:47;;;;;;;11.05;3.10;;;11.50;99.90;;;;;;5092118;28;20454;-78
2022/12/24 12:41:26;;;;;;;13.80;3.00;;;11.20;99.90;;;;;;5091552;28;20032;-77
2022/12/24 12:44:11;;;;;;;10.32;2.38;;;11.40;99.90;;;;;;5091107;28;20043;-78
2022/12/24 12:47:12;;;;;;;8.07;2.28;;;11.40;99.90;;;;;;5090702;28;20347;-78
2022/12/24 12:49:46;;;;;;;9.57;2.95;;;11.30;99.90;;;;;;5091841;28;20056;-78
2022/12/24 12:52:26;;;;;;;11.90;3.25;;;11.50;99.90;;;;;;5091789;28;20028;-78
2022/12/24 12:55:23;;;;;;;15.88;2.90;;;11.50;99.90;;;;;;5091951;28;20028;-77
2022/12/24 12:57:53;;;;;;;19.98;5.28;;;11.50;99.90;;;;;;5090617;28;20028;-78
2022/12/24 13:00:19;;;;;;;9.23;2.75;;;11.60;99.90;;;;;;5091638;28;20062;-77
2022/12/24 13:02:53;;;;;;;13.20;3.38;;;11.70;99.90;;;;;;5091996;28;20020;-78
2022/12/24 13:05:40;;;;;;;15.95;2.78;;;11.80;99.90;;;;;;5092307;28;20024;-79
2022/12/24 13:08:20;;;;;;;14.63;3.67;;;11.90;99.90;;;;;;5091947;28;20047;-78
2022/12/24 13:11:24;;;;;;;14.57;4.18;;;11.90;99.90;;;;;;5091889;28;20076;-77